createdAt,value
2019-05-19T00:02:11.778Z,13.60
2019-05-19T00:04:38.174Z,13.80
2019-05-19T00:07:04.677Z,13.65
2019-05-19T00:09:31.038Z,13.03
2019-05-19T00:11:57.597Z,12.98
2019-05-19T00:14:24.226Z,13.93
2019-05-19T00:16:50.804Z,13.90
2019-05-19T00:19:26.205Z,12.43
2019-05-19T00:21:45.800Z,16.77
2019-05-19T00:24:12.228Z,13.50
2019-05-19T00:26:40.502Z,15.38
2019-05-19T00:29:07.077Z,12.75
2019-05-19T00:31:33.507Z,14.05
2019-05-19T00:33:59.949Z,14.65
2019-05-19T00:36:26.519Z,13.70
2019-05-19T00:38:52.874Z,9.93
2019-05-19T00:41:19.515Z,10.72
2019-05-19T00:43:46.851Z,16.35
2019-05-19T00:46:13.288Z,11.10
2019-05-19T00:48:39.859Z,12.25
2019-05-19T00:51:06.278Z,16.48
2019-05-19T00:53:32.665Z,15.63
2019-05-19T00:56:00.310Z,12.07
2019-05-19T00:58:26.762Z,10.82
2019-05-19T01:00:53.177Z,11.18
2019-05-19T01:03:19.533Z,11.88
2019-05-19T01:05:47.056Z,16.45
2019-05-19T01:08:13.603Z,11.70
2019-05-19T01:10:40.040Z,8.63
2019-05-19T01:13:06.432Z,11.73
2019-05-19T01:15:32.854Z,8.03
2019-05-19T01:17:59.252Z,10.88
2019-05-19T01:20:25.846Z,9.45
2019-05-19T01:22:52.297Z,8.38
2019-05-19T01:25:18.749Z,9.88
2019-05-19T01:27:47.148Z,9.13
2019-05-19T01:30:13.513Z,9.75
2019-05-19T01:32:39.956Z,10.90
2019-05-19T01:35:07.448Z,15.93
2019-05-19T01:37:33.826Z,12.53
2019-05-19T01:40:00.312Z,10.20
2019-05-19T01:42:26.774Z,13.70
2019-05-19T01:44:53.205Z,12.37
2019-05-19T01:47:19.580Z,11.20
2019-05-19T01:49:46.977Z,11.28
2019-05-19T01:52:13.685Z,12.80
2019-05-19T01:54:40.095Z,10.65
2019-05-19T01:57:06.482Z,9.80
2019-05-19T01:59:32.807Z,12.05
2019-05-19T02:01:59.247Z,10.72
2019-05-19T02:04:25.717Z,9.53
2019-05-19T02:06:52.115Z,10.82
2019-05-19T02:09:18.557Z,12.55
2019-05-19T02:11:46.327Z,10.30
2019-05-19T02:14:12.839Z,11.08
2019-05-19T02:16:39.280Z,9.63
2019-05-19T02:19:05.797Z,10.35
2019-05-19T02:21:32.280Z,7.42
2019-05-19T02:23:58.869Z,11.40
2019-05-19T02:26:25.419Z,11.60
2019-05-19T02:28:56.402Z,10.00
2019-05-19T02:31:22.855Z,9.95
2019-05-19T02:33:49.473Z,9.68
2019-05-19T02:36:16.008Z,12.10
2019-05-19T02:38:42.394Z,10.28
2019-05-19T02:41:08.844Z,13.05
2019-05-19T02:43:35.703Z,9.03
2019-05-19T02:46:02.158Z,11.48
2019-05-19T02:48:28.678Z,10.85
2019-05-19T02:50:55.110Z,10.23
2019-05-19T02:53:23.097Z,12.00
2019-05-19T02:55:51.441Z,10.10
2019-05-19T02:58:17.883Z,11.03
2019-05-19T03:00:44.261Z,11.97
2019-05-19T03:03:10.750Z,10.68
2019-05-19T03:05:38.252Z,9.68
2019-05-19T03:08:04.734Z,10.98
2019-05-19T03:10:31.100Z,9.53
2019-05-19T03:12:57.459Z,9.85
2019-05-19T03:15:23.857Z,10.03
2019-05-19T03:17:50.486Z,9.68
2019-05-19T03:20:16.911Z,14.95
2019-05-19T03:22:43.448Z,12.78
2019-05-19T03:25:09.875Z,11.22
2019-05-19T03:27:36.321Z,10.65
2019-05-19T03:30:26.460Z,13.20
2019-05-19T03:32:54.685Z,12.20
2019-05-19T03:35:21.100Z,13.70
2019-05-19T03:37:48.563Z,12.45
2019-05-19T03:40:20.819Z,12.55
2019-05-19T03:42:50.104Z,15.30
2019-05-19T03:45:16.661Z,10.78
2019-05-19T03:47:43.052Z,14.95
2019-05-19T03:50:09.472Z,10.80
2019-05-19T03:52:36.217Z,15.80
2019-05-19T03:55:04.735Z,14.28
2019-05-19T03:57:32.150Z,14.93
2019-05-19T03:59:58.695Z,15.45
2019-05-19T04:02:24.993Z,15.30
2019-05-19T04:04:51.410Z,13.05
2019-05-19T04:07:17.757Z,17.23
2019-05-19T04:09:44.150Z,13.43
2019-05-19T04:12:10.553Z,15.58
2019-05-19T04:14:36.986Z,17.17
2019-05-19T04:17:03.438Z,19.67
2019-05-19T04:19:31.748Z,18.75
2019-05-19T04:21:58.284Z,18.85
2019-05-19T04:24:24.822Z,17.73
2019-05-19T04:26:51.231Z,18.60
2019-05-19T04:29:17.641Z,20.20
2019-05-19T04:31:46.069Z,21.80
2019-05-19T04:34:12.518Z,19.82
2019-05-19T04:36:38.948Z,18.82
2019-05-19T04:39:06.340Z,17.32
2019-05-19T04:41:32.833Z,21.10
2019-05-19T04:43:59.153Z,19.32
2019-05-19T04:46:25.543Z,19.85
2019-05-19T04:48:52.017Z,13.38
2019-05-19T04:51:18.408Z,16.82
2019-05-19T04:53:44.825Z,16.07
2019-05-19T04:56:11.290Z,16.85
2019-05-19T04:58:37.669Z,13.48
2019-05-19T05:01:04.104Z,16.20
2019-05-19T05:03:31.567Z,19.15
2019-05-19T05:05:57.957Z,18.20
2019-05-19T05:08:30.141Z,18.92
2019-05-19T05:10:52.636Z,18.57
2019-05-19T05:13:19.006Z,17.42
2019-05-19T05:15:45.343Z,17.90
2019-05-19T05:18:11.778Z,12.98
2019-05-19T05:20:38.151Z,12.88
2019-05-19T05:23:04.573Z,15.72
2019-05-19T05:25:33.132Z,10.95
2019-05-19T05:27:59.495Z,12.47
2019-05-19T05:30:25.903Z,13.22
2019-05-19T05:32:54.071Z,13.25
2019-05-19T05:35:20.505Z,14.73
2019-05-19T05:37:46.874Z,13.50
2019-05-19T05:40:13.281Z,12.93
2019-05-19T05:42:40.718Z,14.13
2019-05-19T05:45:08.396Z,16.93
2019-05-19T05:47:35.682Z,10.60
2019-05-19T05:50:03.978Z,14.85
2019-05-19T05:52:38.562Z,16.73
2019-05-19T05:54:58.704Z,14.50
2019-05-19T05:57:25.086Z,13.93
2019-05-19T05:59:51.473Z,16.25
2019-05-19T06:02:18.156Z,21.30
2019-05-19T06:04:44.545Z,39.18
2019-05-19T06:07:11.801Z,58.60
2019-05-19T06:09:38.360Z,45.63
2019-05-19T06:12:04.722Z,31.90
2019-05-19T06:14:31.099Z,19.60
2019-05-19T06:16:57.596Z,19.62
2019-05-19T06:19:23.992Z,19.95
2019-05-19T06:21:50.376Z,18.20
2019-05-19T06:24:16.890Z,20.27
2019-05-19T06:26:43.370Z,16.52
2019-05-19T06:29:09.750Z,17.60
2019-05-19T06:31:39.419Z,17.02
2019-05-19T06:34:06.902Z,12.68
2019-05-19T06:36:33.299Z,14.63
2019-05-19T06:38:59.928Z,18.23
2019-05-19T06:41:26.396Z,15.10
2019-05-19T06:43:52.791Z,16.30
2019-05-19T06:46:20.668Z,15.85
2019-05-19T06:48:48.196Z,18.45
2019-05-19T06:51:15.656Z,19.00
2019-05-19T06:53:42.167Z,18.85
2019-05-19T06:56:08.571Z,16.48
2019-05-19T06:58:35.155Z,48.90
2019-05-19T07:01:01.598Z,110.75
2019-05-19T07:03:28.094Z,55.65
2019-05-19T07:05:54.480Z,20.65
2019-05-19T07:08:20.913Z,20.82
2019-05-19T07:10:47.424Z,16.73
2019-05-19T07:13:13.836Z,20.70
2019-05-19T07:15:41.997Z,18.65
2019-05-19T07:18:08.444Z,17.20
2019-05-19T07:20:34.890Z,18.35
2019-05-19T07:23:01.530Z,15.35
2019-05-19T07:25:28.028Z,14.98
2019-05-19T07:27:54.473Z,18.82
2019-05-19T07:30:20.958Z,15.00
2019-05-19T07:32:47.327Z,19.07
2019-05-19T07:35:14.818Z,15.25
2019-05-19T07:37:42.276Z,17.85
2019-05-19T07:40:09.100Z,15.48
2019-05-19T07:42:35.713Z,14.78
2019-05-19T07:45:02.421Z,13.08
2019-05-19T07:47:28.893Z,12.30
2019-05-19T07:49:55.271Z,19.52
2019-05-19T07:52:21.615Z,19.10
2019-05-19T07:54:48.011Z,13.15
2019-05-19T07:57:14.531Z,19.20
2019-05-19T07:59:42.865Z,17.23
2019-05-19T08:02:09.284Z,18.80
2019-05-19T08:04:35.789Z,17.92
2019-05-19T08:07:02.849Z,13.35
2019-05-19T08:09:29.536Z,16.00
2019-05-19T08:11:56.728Z,16.00
2019-05-19T08:14:24.213Z,16.40
2019-05-19T08:16:50.807Z,17.45
2019-05-19T08:19:17.661Z,13.38
2019-05-19T08:21:44.982Z,13.78
2019-05-19T08:24:11.683Z,10.90
2019-05-19T08:26:38.103Z,15.63
2019-05-19T08:29:06.016Z,19.50
2019-05-19T08:31:32.598Z,17.30
2019-05-19T08:33:59.324Z,18.07
2019-05-19T08:36:27.502Z,12.65
2019-05-19T08:38:54.998Z,16.02
2019-05-19T08:41:22.059Z,13.30
2019-05-19T08:43:53.259Z,11.88
2019-05-19T08:48:46.399Z,10.10
2019-05-19T08:51:12.956Z,12.35
2019-05-19T08:53:39.814Z,9.73
2019-05-19T08:56:06.277Z,11.12
2019-05-19T08:58:32.688Z,10.60
2019-05-19T09:00:59.202Z,12.70
2019-05-19T09:03:25.635Z,12.30
2019-05-19T09:05:52.343Z,10.53
2019-05-19T09:08:18.796Z,11.25
2019-05-19T09:10:45.492Z,18.27
2019-05-19T09:13:12.526Z,13.05
2019-05-19T09:15:39.849Z,12.13
2019-05-19T09:18:06.565Z,11.88
2019-05-19T09:20:33.414Z,10.38
2019-05-19T09:23:00.369Z,12.93
2019-05-19T09:25:27.658Z,12.93
2019-05-19T09:27:56.041Z,10.23
2019-05-19T09:30:23.025Z,9.65
2019-05-19T09:32:50.386Z,11.05
2019-05-19T09:35:17.329Z,7.87
2019-05-19T09:37:46.445Z,9.70
2019-05-19T09:40:13.479Z,12.78
2019-05-19T09:42:40.212Z,14.45
2019-05-19T09:45:06.775Z,10.50
2019-05-19T09:47:33.558Z,14.10
2019-05-19T09:50:00.422Z,9.78
2019-05-19T09:52:27.262Z,9.73
2019-05-19T09:54:53.833Z,9.78
2019-05-19T09:57:21.294Z,8.28
2019-05-19T09:59:49.242Z,12.60
2019-05-19T10:02:16.829Z,10.08
2019-05-19T10:04:43.660Z,12.75
2019-05-19T10:07:11.185Z,12.58
2019-05-19T10:09:47.329Z,12.68
2019-05-19T10:12:15.156Z,8.90
2019-05-19T10:14:43.157Z,9.90
2019-05-19T10:17:10.310Z,12.80
2019-05-19T10:19:39.195Z,12.82
2019-05-19T10:22:06.458Z,10.85
2019-05-19T10:24:33.573Z,12.53
2019-05-19T10:27:01.814Z,8.28
2019-05-19T10:29:28.839Z,10.10
2019-05-19T10:31:57.536Z,13.05
2019-05-19T10:34:24.102Z,11.50
2019-05-19T10:36:51.146Z,7.78
2019-05-19T10:39:20.568Z,10.23
2019-05-19T10:41:48.147Z,15.05
2019-05-19T10:44:14.642Z,8.20
2019-05-19T10:46:41.485Z,8.28
2019-05-19T10:49:08.036Z,7.35
2019-05-19T10:51:34.547Z,9.33
2019-05-19T10:54:01.274Z,8.30
2019-05-19T10:56:30.595Z,11.85
2019-05-19T10:58:57.614Z,9.98
2019-05-19T11:01:27.491Z,11.95
2019-05-19T11:03:54.282Z,10.43
2019-05-19T11:06:21.056Z,11.28
2019-05-19T11:08:47.875Z,11.48
2019-05-19T11:11:14.303Z,8.28
2019-05-19T11:24:59.945Z,9.28
2019-05-19T11:27:26.485Z,10.25
2019-05-19T11:29:53.011Z,9.83
2019-05-19T11:32:19.532Z,8.18
2019-05-19T11:34:45.963Z,8.58
2019-05-19T11:37:12.797Z,9.18
2019-05-19T11:39:41.974Z,9.28
2019-05-19T11:42:08.382Z,8.35
2019-05-19T11:44:34.808Z,8.73
2019-05-19T11:47:03.255Z,7.95
2019-05-19T11:49:29.562Z,8.53
2019-05-19T11:51:55.996Z,7.80
2019-05-19T11:54:22.569Z,11.22
2019-05-19T11:56:49.026Z,12.65
2019-05-19T11:59:15.569Z,9.38
2019-05-19T12:01:42.196Z,10.88
2019-05-19T12:04:08.722Z,8.78
2019-05-19T12:06:39.247Z,8.08
2019-05-19T12:09:06.225Z,9.28
2019-05-19T12:11:32.805Z,8.68
2019-05-19T12:13:59.288Z,10.63
2019-05-19T12:16:25.721Z,9.83
2019-05-19T12:18:52.300Z,9.45
2019-05-19T12:21:18.894Z,8.00
2019-05-19T12:23:45.604Z,6.55
2019-05-19T12:26:22.694Z,9.55
2019-05-19T12:28:40.228Z,8.55
2019-05-19T12:31:08.759Z,11.35
2019-05-19T12:33:35.423Z,11.08
2019-05-19T12:36:02.199Z,10.18
2019-05-19T12:38:28.759Z,10.32
2019-05-19T12:40:56.899Z,9.80
2019-05-19T12:43:23.447Z,9.48
2019-05-19T12:45:50.060Z,11.53
2019-05-19T12:48:16.589Z,9.08
2019-05-19T12:50:42.971Z,8.63
2019-05-19T12:53:10.323Z,10.08
2019-05-19T12:55:36.869Z,7.80
2019-05-19T12:58:03.335Z,8.58
2019-05-19T13:00:29.830Z,9.85
2019-05-19T13:02:56.513Z,9.95
2019-05-19T13:05:22.957Z,8.10
2019-05-19T13:07:49.398Z,10.18
2019-05-19T13:10:15.739Z,9.23
2019-05-19T13:12:42.170Z,9.23
2019-05-19T13:15:09.677Z,12.03
2019-05-19T13:17:36.916Z,9.95
2019-05-19T13:20:03.565Z,8.78
2019-05-19T13:22:30.088Z,8.40
2019-05-19T13:24:56.454Z,8.13
2019-05-19T13:27:22.963Z,7.85
2019-05-19T13:29:49.453Z,7.50
2019-05-19T13:32:15.835Z,8.45
2019-05-19T13:34:42.311Z,9.88
2019-05-19T13:37:09.722Z,10.00
2019-05-19T13:39:36.157Z,12.35
2019-05-19T13:42:03.565Z,6.28
2019-05-19T13:44:30.023Z,9.18
2019-05-19T13:46:56.578Z,10.30
2019-05-19T13:49:23.002Z,9.15
2019-05-19T13:51:49.612Z,9.08
2019-05-19T13:54:16.268Z,9.58
2019-05-19T13:56:42.884Z,7.83
2019-05-19T13:59:11.128Z,7.40
2019-05-19T14:01:38.786Z,6.55
2019-05-19T14:04:05.255Z,10.95
2019-05-19T14:06:31.806Z,8.38
2019-05-19T14:08:58.127Z,7.08
2019-05-19T14:11:24.633Z,8.03
2019-05-19T14:13:51.241Z,5.58
2019-05-19T14:16:17.760Z,6.50
2019-05-19T14:18:44.319Z,4.15
2019-05-19T14:21:11.035Z,3.67
2019-05-19T14:23:37.394Z,5.70
2019-05-19T14:26:03.705Z,6.30
2019-05-19T14:28:30.114Z,5.10
2019-05-19T14:30:56.528Z,7.83
2019-05-19T14:33:22.958Z,5.90
2019-05-19T14:35:49.353Z,4.58
2019-05-19T14:38:16.504Z,5.42
2019-05-19T14:40:42.903Z,5.53
2019-05-19T14:43:11.217Z,6.95
2019-05-19T14:45:37.640Z,6.53
2019-05-19T14:48:04.025Z,5.55
2019-05-19T14:50:30.466Z,5.50
2019-05-19T14:52:57.836Z,7.03
2019-05-19T14:55:24.188Z,5.33
2019-05-19T14:57:50.737Z,4.85
2019-05-19T15:00:17.365Z,5.70
2019-05-19T15:02:43.725Z,5.28
2019-05-19T15:05:12.067Z,3.17
2019-05-19T15:07:38.443Z,6.60
2019-05-19T15:10:05.067Z,3.50
2019-05-19T15:12:31.548Z,3.00
2019-05-19T15:14:57.913Z,4.00
2019-05-19T15:17:24.244Z,5.75
2019-05-19T15:19:50.715Z,3.72
2019-05-19T15:22:17.137Z,5.72
2019-05-19T15:24:43.585Z,5.33
2019-05-19T15:27:10.259Z,3.33
2019-05-19T15:29:36.675Z,4.37
2019-05-19T15:32:03.141Z,7.60
2019-05-19T15:34:29.683Z,4.72
2019-05-19T15:36:56.063Z,5.78
2019-05-19T15:39:22.390Z,6.62
2019-05-19T15:41:49.063Z,6.12
2019-05-19T15:44:15.645Z,6.15
2019-05-19T15:46:41.927Z,4.28
2019-05-19T15:49:09.290Z,4.75
2019-05-19T15:51:37.880Z,5.12
2019-05-19T15:54:05.289Z,3.02
2019-05-19T15:56:31.701Z,6.45
2019-05-19T15:58:58.336Z,3.27
2019-05-19T16:01:24.929Z,6.42
2019-05-19T16:03:51.574Z,3.45
2019-05-19T16:06:18.021Z,1.92
2019-05-19T16:08:44.479Z,3.50
2019-05-19T16:11:12.058Z,2.83
2019-05-19T16:13:38.831Z,2.08
2019-05-19T16:16:05.265Z,4.83
2019-05-19T16:18:31.749Z,3.40
2019-05-19T16:20:58.151Z,1.87
2019-05-19T16:23:27.603Z,2.47
2019-05-19T16:25:54.067Z,2.45
2019-05-19T16:28:30.326Z,2.15
2019-05-19T16:30:48.960Z,2.67
2019-05-19T16:33:17.555Z,4.90
2019-05-19T16:35:44.079Z,2.45
2019-05-19T16:38:10.538Z,2.50
2019-05-19T16:40:37.097Z,4.87
2019-05-19T16:43:03.555Z,3.75
2019-05-19T16:45:31.159Z,5.75
2019-05-19T16:47:57.677Z,4.55
2019-05-19T16:50:25.128Z,6.55
2019-05-19T16:52:51.742Z,4.08
2019-05-19T16:55:23.803Z,3.45
2019-05-19T16:57:50.228Z,3.87
2019-05-19T17:00:16.779Z,4.30
2019-05-19T17:02:43.303Z,3.87
2019-05-19T17:05:09.750Z,2.77
2019-05-19T17:07:36.225Z,1.92
2019-05-19T17:10:05.310Z,2.55
2019-05-19T17:12:31.829Z,2.20
2019-05-19T17:14:58.348Z,3.12
2019-05-19T17:17:26.831Z,3.10
2019-05-19T17:19:53.249Z,3.95
2019-05-19T17:22:19.799Z,3.52
2019-05-19T17:24:46.206Z,6.15
2019-05-19T17:27:12.691Z,5.67
2019-05-19T17:29:39.231Z,6.50
2019-05-19T17:32:06.451Z,2.37
2019-05-19T17:34:32.892Z,3.40
2019-05-19T17:36:59.334Z,3.02
2019-05-19T17:39:26.329Z,3.12
2019-05-19T17:41:52.866Z,3.80
2019-05-19T17:44:19.310Z,2.17
2019-05-19T17:46:47.441Z,3.70
2019-05-19T17:49:13.913Z,5.35
2019-05-19T17:51:40.614Z,2.22
2019-05-19T17:54:07.014Z,1.92
2019-05-19T17:56:33.399Z,1.22
2019-05-19T17:58:59.857Z,2.50
2019-05-19T18:01:27.391Z,1.00
2019-05-19T18:03:53.824Z,0.68
2019-05-19T18:06:20.194Z,1.90
2019-05-19T18:08:46.496Z,1.82
2019-05-19T18:11:12.942Z,3.50
2019-05-19T18:13:39.296Z,2.15
2019-05-19T18:16:05.718Z,2.35
2019-05-19T18:18:32.064Z,1.25
2019-05-19T18:20:58.628Z,6.55
2019-05-19T18:23:25.994Z,2.12
2019-05-19T18:25:52.375Z,2.92
2019-05-19T18:28:18.843Z,3.90
2019-05-19T18:30:45.330Z,5.50
2019-05-19T18:33:11.827Z,3.77
2019-05-19T18:35:38.276Z,5.65
2019-05-19T18:38:04.851Z,4.45
2019-05-19T18:40:31.250Z,2.10
2019-05-19T18:42:57.800Z,1.17
2019-05-19T18:45:25.173Z,1.98
2019-05-19T18:47:53.366Z,3.42
2019-05-19T18:50:19.729Z,2.00
2019-05-19T18:52:46.235Z,0.85
2019-05-19T18:55:12.660Z,1.42
2019-05-19T18:57:39.184Z,4.30
2019-05-19T19:00:05.656Z,2.30
2019-05-19T19:02:33.174Z,1.70
2019-05-19T19:04:59.579Z,1.42
2019-05-19T19:07:45.222Z,1.42
2019-05-19T19:10:11.518Z,1.87
2019-05-19T19:12:37.813Z,3.20
2019-05-19T19:15:04.900Z,2.62
2019-05-19T19:17:31.476Z,2.62
2019-05-19T19:19:57.865Z,2.95
2019-05-19T19:22:25.311Z,6.97
2019-05-19T19:24:51.907Z,6.60
2019-05-19T19:27:18.332Z,7.90
2019-05-19T19:29:45.768Z,4.45
2019-05-19T19:32:12.437Z,2.92
2019-05-19T19:34:38.861Z,3.40
2019-05-19T19:37:05.370Z,3.72
2019-05-19T19:39:31.910Z,2.67
2019-05-19T19:41:58.525Z,2.92
2019-05-19T19:44:25.325Z,2.37
2019-05-19T19:46:53.843Z,5.35
2019-05-19T19:49:23.177Z,2.17
2019-05-19T19:51:49.926Z,3.83
2019-05-19T19:54:16.701Z,3.22
2019-05-19T19:56:43.377Z,4.17
2019-05-19T19:59:09.808Z,5.58
2019-05-19T20:01:36.370Z,5.42
2019-05-19T20:04:02.824Z,31.75
2019-05-19T20:06:29.244Z,37.45
2019-05-19T20:08:55.661Z,7.78
2019-05-19T20:11:23.067Z,4.70
2019-05-19T20:13:49.535Z,3.50
2019-05-19T20:16:16.000Z,3.72
2019-05-19T20:18:42.483Z,3.37
2019-05-19T20:21:09.249Z,5.75
2019-05-19T20:23:35.675Z,3.15
2019-05-19T20:26:02.111Z,5.92
2019-05-19T20:28:28.711Z,2.70
2019-05-19T20:30:55.522Z,3.42
2019-05-19T20:33:24.347Z,3.45
2019-05-19T20:35:51.004Z,6.85
2019-05-19T20:38:17.553Z,4.95
2019-05-19T20:40:44.135Z,5.40
2019-05-19T20:43:10.567Z,4.60
2019-05-19T20:45:36.950Z,5.30
2019-05-19T20:48:03.403Z,4.83
2019-05-19T20:50:31.644Z,5.92
2019-05-19T20:52:58.086Z,4.62
2019-05-19T20:55:25.775Z,5.62
2019-05-19T20:57:52.308Z,5.87
2019-05-19T21:00:18.885Z,3.87
2019-05-19T21:02:45.394Z,6.40
2019-05-19T21:05:11.949Z,5.75
2019-05-19T21:07:38.502Z,5.00
2019-05-19T21:10:05.381Z,6.30
2019-05-19T21:12:31.819Z,5.30
2019-05-19T21:14:58.178Z,7.67
2019-05-19T21:17:25.580Z,6.42
2019-05-19T21:19:53.024Z,7.42
2019-05-19T21:22:20.225Z,9.90
2019-05-19T21:24:46.604Z,7.37
2019-05-19T21:27:12.988Z,6.47
2019-05-19T21:29:39.486Z,8.53
2019-05-19T21:32:06.046Z,8.43
2019-05-19T21:34:32.459Z,11.45
2019-05-19T21:36:58.805Z,8.33
2019-05-19T21:39:26.081Z,12.03
2019-05-19T21:41:52.415Z,10.58
2019-05-19T21:44:18.847Z,11.30
2019-05-19T21:46:45.252Z,9.30
2019-05-19T21:49:11.640Z,11.80
2019-05-19T21:51:38.173Z,13.80
2019-05-19T21:54:04.600Z,11.15
2019-05-19T21:56:30.993Z,11.48
2019-05-19T21:58:57.425Z,16.93
2019-05-19T22:01:25.956Z,13.40
2019-05-19T22:03:52.480Z,18.55
2019-05-19T22:06:20.762Z,16.07
2019-05-19T22:08:47.272Z,16.17
2019-05-19T22:11:13.711Z,21.77
2019-05-19T22:13:40.079Z,21.40
2019-05-19T22:16:12.897Z,19.50
2019-05-19T22:18:34.972Z,20.60
2019-05-19T22:21:01.562Z,17.67
2019-05-19T22:23:29.952Z,22.75
2019-05-19T22:25:56.312Z,14.98
2019-05-19T22:28:22.667Z,20.45
2019-05-19T22:30:49.097Z,19.30
2019-05-19T22:33:15.521Z,20.55
2019-05-19T22:35:42.168Z,19.48
2019-05-19T22:38:09.576Z,20.48
2019-05-19T22:40:36.199Z,20.02
2019-05-19T22:43:02.747Z,19.50
2019-05-19T22:45:30.537Z,18.35
2019-05-19T22:47:57.007Z,17.50
2019-05-19T22:50:23.429Z,19.02
2019-05-19T22:52:50.098Z,20.68
2019-05-19T22:55:16.538Z,18.10
2019-05-19T22:57:42.936Z,22.48
2019-05-19T23:00:09.646Z,19.70
2019-05-19T23:02:37.874Z,22.10
2019-05-19T23:05:05.012Z,19.92
2019-05-19T23:07:33.399Z,19.45
2019-05-19T23:09:59.866Z,18.95
2019-05-19T23:12:26.277Z,18.67
2019-05-19T23:14:52.691Z,17.85
2019-05-19T23:17:19.178Z,17.42
2019-05-19T23:19:45.599Z,18.52
2019-05-19T23:22:12.055Z,20.20
2019-05-19T23:24:38.487Z,16.50
2019-05-19T23:27:04.864Z,19.37
2019-05-19T23:29:32.216Z,14.30
2019-05-19T23:32:06.784Z,13.62
2019-05-19T23:34:26.851Z,15.13
2019-05-19T23:36:53.368Z,13.93
2019-05-19T23:39:19.820Z,13.60
2019-05-19T23:41:46.263Z,16.80
2019-05-19T23:44:12.711Z,14.30
2019-05-19T23:46:39.095Z,15.10
2019-05-19T23:49:05.546Z,13.90
2019-05-19T23:51:32.106Z,17.77
2019-05-19T23:53:59.505Z,15.75
2019-05-19T23:56:25.846Z,15.25
2019-05-19T23:58:52.317Z,13.45
